Terminal Aerodrome Forecast
Issued by NWS

Home | Current Version | Previous Version | Text Only | Print | Product List | Glossary On
Versions: 1 2 3 4 5 6 7 8 9 10 11 12 13 14 15 16 17 18
000
FTUS41 KPHI 240800 AAA
TAFMIV
TAF AMD
KMIV 240806Z 2408/2506 16012G25KT P6SM -RA SCT009 OVC015
      WS020/20055KT
      TEMPO 2408/2411 2SM -RA BR OVC009
     FM241100 17013KT 4SM BR OVC005 WS020/20055KT
     FM241400 20014G24KT P6SM -SHRA SCT008 OVC025
     FM241700 20016G28KT P6SM SCT020 BKN050
     FM250000 23008KT P6SM OVC050=

USA.gov is the U.S. government's official web portal to all federal, state and local government web resources and services.